Time;durP1;ratioP1;P1;durP2;ratioP2;P2;SDS_P1;SDS_P2;PMS_P1;PMS_P2;Temp;Humidity;BMP_temperature;BMP_pressure;BME280_temperature;BME280_humidity;BME280_pressure;Samples;Min_cycle;Max_cycle;Signal;HPM_P1;HPM_P2
2024/04/26 00:04:53;;;;;;;;;18.50;15.75;;;;;;;;6499412;39;9065;-72
2024/04/26 00:10:54;;;;;;;;;22.50;20.75;;;;;;;;6489922;46;9011;-71
2024/04/26 00:16:55;;;;;;;;;22.25;19.00;;;;;;;;6492168;39;9006;-71
2024/04/26 00:23:09;;;;;;;;;18.25;17.75;;;;;;;;6491933;46;8912;-71
2024/04/26 00:29:17;;;;;;;;;21.50;20.00;;;;;;;;6492159;31;8911;-70
2024/04/26 00:35:22;;;;;;;;;20.50;18.25;;;;;;;;6492273;39;8942;-71
2024/04/26 00:41:24;;;;;;;;;14.00;14.00;;;;;;;;6492134;39;8991;-70
2024/04/26 00:47:28;;;;;;;;;15.00;14.00;;;;;;;;6492766;31;8923;-70
2024/04/26 00:53:33;;;;;;;;;17.75;16.50;;;;;;;;6491217;46;8943;-71
2024/04/26 00:59:37;;;;;;;;;17.25;16.00;;;;;;;;6491916;39;9003;-71
2024/04/26 01:05:49;;;;;;;;;15.50;15.00;;;;;;;;6491513;31;9106;-71
2024/04/26 01:11:54;;;;;;;;;17.00;16.25;;;;;;;;6491255;46;8896;-71
2024/04/26 01:17:58;;;;;;;;;25.00;18.50;;;;;;;;6492080;39;9063;-71
2024/04/26 01:24:06;;;;;;;;;16.75;16.75;;;;;;;;6491016;31;9051;-72
2024/04/26 01:30:19;;;;;;;;;17.50;16.25;;;;;;;;6491751;39;8892;-70
2024/04/26 01:36:23;;;;;;;;;17.75;17.75;;;;;;;;6491419;46;8955;-73
2024/04/26 01:42:41;;;;;;;;;21.00;19.00;;;;;;;;6491566;39;9472;-72
2024/04/26 01:48:48;;;;;;;;;21.50;19.75;;;;;;;;6494712;46;8978;-70
2024/04/26 01:54:50;;;;;;;;;16.25;16.25;;;;;;;;6499327;46;8887;-72
2024/04/26 02:00:51;;;;;;;;;20.75;19.25;;;;;;;;6498076;46;8917;-71
2024/04/26 02:06:55;;;;;;;;;24.50;20.25;;;;;;;;6492877;39;9013;-70
2024/04/26 02:13:03;;;;;;;;;24.25;20.25;;;;;;;;6491131;46;8853;-71
2024/04/26 02:19:05;;;;;;;;;19.00;18.75;;;;;;;;6491213;39;8884;-70
2024/04/26 02:25:08;;;;;;;;;16.25;16.25;;;;;;;;6491688;39;8916;-71
2024/04/26 02:31:13;;;;;;;;;20.00;20.00;;;;;;;;6491180;46;8872;-71
2024/04/26 02:37:14;;;;;;;;;23.00;21.00;;;;;;;;6490520;39;8927;-71
2024/04/26 02:43:25;;;;;;;;;21.50;18.25;;;;;;;;6492541;31;8844;-72
2024/04/26 02:49:32;;;;;;;;;17.75;16.00;;;;;;;;6491937;31;8848;-72
2024/04/26 02:55:34;;;;;;;;;26.00;21.50;;;;;;;;6490146;31;8884;-71
2024/04/26 03:01:48;;;;;;;;;26.00;23.00;;;;;;;;6491620;39;8912;-70
2024/04/26 03:07:54;;;;;;;;;22.25;22.25;;;;;;;;6489885;39;8963;-72
2024/04/26 03:13:59;;;;;;;;;18.00;17.75;;;;;;;;6502099;46;8928;-73
2024/04/26 03:20:04;;;;;;;;;25.00;23.50;;;;;;;;6491284;39;8936;-71
2024/04/26 03:26:13;;;;;;;;;22.75;19.25;;;;;;;;6490532;46;8935;-72
2024/04/26 03:32:19;;;;;;;;;26.50;25.00;;;;;;;;6490551;46;8876;-72
2024/04/26 03:38:26;;;;;;;;;22.00;22.00;;;;;;;;6490442;39;8920;-71
2024/04/26 03:44:33;;;;;;;;;18.75;16.25;;;;;;;;6490470;31;8923;-71
2024/04/26 03:50:35;;;;;;;;;24.00;22.50;;;;;;;;6488781;47;8940;-73
2024/04/26 03:56:37;;;;;;;;;21.50;20.00;;;;;;;;6490357;47;9052;-73
2024/04/26 04:02:44;;;;;;;;;27.00;24.00;;;;;;;;6469028;39;8979;-68
2024/04/26 04:08:50;;;;;;;;;27.25;26.00;;;;;;;;6493341;31;8901;-68
2024/04/26 04:14:59;;;;;;;;;19.25;17.00;;;;;;;;6492208;31;8928;-68
2024/04/26 04:21:02;;;;;;;;;29.75;26.50;;;;;;;;6492586;39;9064;-67
2024/04/26 04:27:06;;;;;;;;;32.75;29.00;;;;;;;;6491801;39;8977;-69
2024/04/26 04:33:15;;;;;;;;;35.00;33.25;;;;;;;;6491681;39;8991;-67
2024/04/26 04:39:23;;;;;;;;;35.50;31.75;;;;;;;;6491998;47;9018;-68
2024/04/26 04:45:30;;;;;;;;;48.25;40.25;;;;;;;;6493143;39;8995;-69
2024/04/26 04:51:34;;;;;;;;;46.50;37.25;;;;;;;;6493557;31;8935;-69
2024/04/26 04:57:46;;;;;;;;;47.50;40.00;;;;;;;;6487866;39;8893;-67
2024/04/26 05:03:51;;;;;;;;;44.25;40.00;;;;;;;;6493931;46;8987;-69
2024/04/26 05:09:57;;;;;;;;;53.50;40.25;;;;;;;;6493547;39;8889;-69
2024/04/26 05:15:59;;;;;;;;;53.00;42.50;;;;;;;;6493349;39;8873;-68
2024/04/26 05:22:02;;;;;;;;;49.00;40.50;;;;;;;;6493349;39;8929;-66
2024/04/26 05:28:05;;;;;;;;;48.50;40.75;;;;;;;;6493821;39;9067;-68
2024/04/26 05:34:11;;;;;;;;;53.00;40.50;;;;;;;;6493786;39;8914;-68
2024/04/26 05:40:18;;;;;;;;;45.00;38.50;;;;;;;;6481751;39;8913;-68
2024/04/26 05:46:28;;;;;;;;;38.25;35.25;;;;;;;;6493287;39;8974;-67
2024/04/26 05:52:32;;;;;;;;;40.75;33.00;;;;;;;;6492046;39;9593;-67
2024/04/26 05:58:44;;;;;;;;;49.50;39.25;;;;;;;;6490461;46;8889;-67
2024/04/26 06:04:48;;;;;;;;;43.75;38.25;;;;;;;;6491012;39;9143;-69
2024/04/26 06:10:55;;;;;;;;;40.00;36.50;;;;;;;;6492109;39;8971;-66
2024/04/26 06:17:03;;;;;;;;;41.50;38.00;;;;;;;;6493061;31;10147;-65
2024/04/26 06:23:08;;;;;;;;;37.50;34.00;;;;;;;;6492384;31;8881;-68
2024/04/26 06:29:10;;;;;;;;;38.75;35.25;;;;;;;;6493471;39;8882;-66
2024/04/26 06:35:15;;;;;;;;;37.75;34.25;;;;;;;;6492438;46;8932;-66
2024/04/26 06:41:17;;;;;;;;;42.00;35.67;;;;;;;;6492235;39;8915;-65
2024/04/26 06:47:27;;;;;;;;;40.00;35.67;;;;;;;;6493652;39;8994;-67
2024/04/26 06:53:31;;;;;;;;;34.33;33.67;;;;;;;;6493209;31;8949;-67
2024/04/26 06:59:38;;;;;;;;;30.00;29.00;;;;;;;;6493566;39;8922;-65
2024/04/26 07:05:43;;;;;;;;;36.00;31.67;;;;;;;;6489506;46;8983;-65
2024/04/26 07:11:46;;;;;;;;;36.67;30.00;;;;;;;;6490415;46;8896;-66
2024/04/26 07:17:54;;;;;;;;;25.67;25.33;;;;;;;;6489749;46;8907;-67
2024/04/26 07:23:57;;;;;;;;;26.33;25.00;;;;;;;;6490016;31;8948;-65
2024/04/26 07:30:05;;;;;;;;;33.00;26.67;;;;;;;;6489753;39;8971;-66
2024/04/26 07:36:25;;;;;;;;;18.00;17.00;;;;;;;;6490662;39;8901;-66
2024/04/26 07:42:34;;;;;;;;;25.00;23.33;;;;;;;;6491206;47;8970;-66
2024/04/26 07:48:35;;;;;;;;;26.00;24.00;;;;;;;;6490763;39;8962;-68
2024/04/26 07:54:42;;;;;;;;;20.33;20.33;;;;;;;;6490545;47;8832;-67
2024/04/26 08:00:56;;;;;;;;;28.00;25.00;;;;;;;;6490685;31;8895;-69
2024/04/26 08:07:05;;;;;;;;;29.00;28.33;;;;;;;;6489609;47;9027;-68
2024/04/26 08:13:09;;;;;;;;;29.67;29.67;;;;;;;;6489564;39;8999;-67
2024/04/26 08:19:17;;;;;;;;;34.00;32.00;;;;;;;;6490151;31;8991;-65
2024/04/26 08:25:19;;;;;;;;;36.33;33.67;;;;;;;;6490218;39;8931;-67
2024/04/26 08:31:24;;;;;;;;;32.33;26.00;;;;;;;;6488176;46;8859;-64
2024/04/26 08:37:29;;;;;;;;;27.00;25.67;;;;;;;;6490003;46;8885;-66
2024/04/26 08:43:31;;;;;;;;;23.00;21.67;;;;;;;;6491498;31;8919;-65
2024/04/26 08:49:38;;;;;;;;;31.33;27.00;;;;;;;;6490745;39;8905;-63
2024/04/26 08:55:40;;;;;;;;;25.33;23.00;;;;;;;;6493753;31;8981;-62
2024/04/26 09:01:44;;;;;;;;;29.00;27.67;;;;;;;;6490726;31;8909;-64
2024/04/26 09:07:46;;;;;;;;;24.33;20.00;;;;;;;;6488672;46;8951;-64
2024/04/26 09:13:48;;;;;;;;;38.00;35.00;;;;;;;;6488527;39;9657;-64
2024/04/26 09:19:51;;;;;;;;;42.33;36.33;;;;;;;;6488330;31;9075;-64
2024/04/26 09:25:54;;;;;;;;;29.67;28.33;;;;;;;;6488954;46;8968;-65
2024/04/26 09:32:06;;;;;;;;;48.67;40.00;;;;;;;;6488430;46;8972;-64
2024/04/26 09:38:10;;;;;;;;;47.67;37.33;;;;;;;;6484061;31;8930;-64
2024/04/26 09:44:15;;;;;;;;;40.67;36.67;;;;;;;;6487496;31;10275;-64
2024/04/26 09:50:21;;;;;;;;;35.33;34.33;;;;;;;;6487656;46;9021;-65
2024/04/26 09:56:25;;;;;;;;;42.33;35.00;;;;;;;;6488603;46;8967;-64
2024/04/26 10:02:30;;;;;;;;;35.00;30.67;;;;;;;;6489708;39;8918;-65
2024/04/26 10:08:34;;;;;;;;;27.33;27.33;;;;;;;;6489132;39;8940;-65
2024/04/26 10:14:36;;;;;;;;;21.67;21.67;;;;;;;;6489989;39;8918;-64
2024/04/26 10:20:45;;;;;;;;;29.33;24.00;;;;;;;;6484106;39;9709;-66
2024/04/26 10:26:52;;;;;;;;;36.33;33.67;;;;;;;;6488273;39;9587;-64
2024/04/26 10:32:59;;;;;;;;;27.67;25.00;;;;;;;;6488745;31;8927;-65
2024/04/26 10:39:01;;;;;;;;;30.33;25.67;;;;;;;;6485480;39;9524;-66
2024/04/26 10:45:04;;;;;;;;;37.33;34.67;;;;;;;;6488857;31;8971;-65
2024/04/26 10:51:11;;;;;;;;;20.67;20.67;;;;;;;;6489200;39;8945;-64
2024/04/26 10:57:25;;;;;;;;;34.33;30.67;;;;;;;;6488366;31;9048;-65
2024/04/26 11:03:31;;;;;;;;;25.67;23.00;;;;;;;;6488459;39;9067;-66
2024/04/26 11:09:43;;;;;;;;;35.67;29.67;;;;;;;;6488875;39;8919;-65
2024/04/26 11:15:48;;;;;;;;;22.33;21.67;;;;;;;;6488687;46;8931;-64
2024/04/26 11:21:54;;;;;;;;;27.33;24.00;;;;;;;;6488287;39;9605;-64
2024/04/26 11:27:56;;;;;;;;;21.00;21.00;;;;;;;;6489566;39;9091;-64
2024/04/26 11:34:05;;;;;;;;;24.67;22.33;;;;;;;;6488437;31;8920;-64
2024/04/26 11:40:14;;;;;;;;;25.00;24.00;;;;;;;;6489122;39;8884;-66
2024/04/26 11:46:39;;;;;;;;;29.00;29.00;;;;;;;;6488674;31;9060;-64
2024/04/26 11:52:43;;;;;;;;;23.33;20.67;;;;;;;;6488258;31;9018;-65
2024/04/26 11:58:46;;;;;;;;;43.67;36.00;;;;;;;;6484173;31;8997;-65
2024/04/26 12:05:00;;;;;;;;;22.33;22.33;;;;;;;;6487917;39;9004;-66
2024/04/26 12:11:01;;;;;;;;;29.00;25.00;;;;;;;;6487246;39;9047;-66
2024/04/26 12:17:04;;;;;;;;;20.00;17.00;;;;;;;;6487408;46;8945;-65
2024/04/26 12:23:08;;;;;;;;;27.67;24.33;;;;;;;;6490358;39;8964;-65
2024/04/26 12:29:13;;;;;;;;;25.00;25.00;;;;;;;;6491583;39;9512;-65
2024/04/26 12:35:18;;;;;;;;;25.00;20.33;;;;;;;;6490452;39;8990;-65
2024/04/26 12:41:20;;;;;;;;;33.00;28.00;;;;;;;;6490575;31;9779;-64
2024/04/26 12:47:26;;;;;;;;;20.33;19.33;;;;;;;;6486085;31;9145;-64
2024/04/26 12:53:30;;;;;;;;;22.33;22.33;;;;;;;;6491009;39;8990;-65
2024/04/26 12:59:35;;;;;;;;;30.33;29.00;;;;;;;;6489516;31;9023;-65
2024/04/26 13:05:40;;;;;;;;;49.67;41.33;;;;;;;;6488938;46;9009;-64
2024/04/26 13:11:43;;;;;;;;;28.33;26.00;;;;;;;;6489686;39;8918;-65
2024/04/26 13:17:45;;;;;;;;;33.67;30.33;;;;;;;;6488009;31;9065;-65
2024/04/26 13:23:50;;;;;;;;;18.50;17.25;;;;;;;;6485647;46;8959;-64
2024/04/26 13:29:56;;;;;;;;;22.75;19.50;;;;;;;;6487998;39;8923;-64
2024/04/26 13:36:01;;;;;;;;;40.67;33.67;;;;;;;;6490007;39;8952;-64
2024/04/26 13:42:04;;;;;;;;;28.67;26.00;;;;;;;;6490564;31;9006;-64
2024/04/26 13:48:06;;;;;;;;;28.50;21.50;;;;;;;;6489765;39;9095;-64
2024/04/26 13:54:11;;;;;;;;;17.00;17.00;;;;;;;;6489226;39;9054;-66
2024/04/26 14:00:15;;;;;;;;;28.67;27.00;;;;;;;;6488221;39;8941;-64
2024/04/26 14:06:20;;;;;;;;;20.25;20.25;;;;;;;;6490649;39;9045;-64
2024/04/26 14:12:22;;;;;;;;;19.50;15.50;;;;;;;;6490277;46;8869;-64
2024/04/26 14:18:28;;;;;;;;;16.00;15.67;;;;;;;;6489773;46;8905;-67
2024/04/26 14:24:36;;;;;;;;;13.50;11.75;;;;;;;;6490838;39;8885;-63
2024/04/26 14:30:41;;;;;;;;;12.25;11.25;;;;;;;;6489005;39;8893;-64
2024/04/26 14:36:49;;;;;;;;;45.33;37.00;;;;;;;;6489596;39;8918;-64
2024/04/26 14:42:51;;;;;;;;;38.67;34.33;;;;;;;;6490960;39;9633;-64
2024/04/26 14:48:53;;;;;;;;;14.50;11.75;;;;;;;;6489401;46;8943;-65
2024/04/26 14:54:57;;;;;;;;;21.50;19.50;;;;;;;;6490824;39;9527;-66
2024/04/26 15:01:01;;;;;;;;;12.25;12.00;;;;;;;;6489909;46;8942;-64
2024/04/26 15:07:09;;;;;;;;;11.75;10.75;;;;;;;;6489823;46;8979;-66
2024/04/26 15:13:12;;;;;;;;;13.75;12.50;;;;;;;;6489725;39;9119;-64
2024/04/26 15:19:14;;;;;;;;;12.75;11.25;;;;;;;;6489166;39;9035;-64
2024/04/26 15:25:16;;;;;;;;;11.50;10.50;;;;;;;;6489723;39;9084;-65
2024/04/26 15:31:19;;;;;;;;;9.75;8.25;;;;;;;;6489485;39;8927;-69
2024/04/26 15:37:20;;;;;;;;;7.25;7.25;;;;;;;;6490261;39;9008;-70
2024/04/26 15:43:27;;;;;;;;;4.75;4.75;;;;;;;;6488524;46;8951;-70
2024/04/26 15:49:56;;;;;;;;;9.33;7.00;;;;;;;;6487724;46;9064;-69
2024/04/26 15:56:02;;;;;;;;;9.00;9.00;;;;;;;;6489044;39;8987;-71
2024/04/26 16:02:09;;;;;;;;;8.00;7.00;;;;;;;;6488423;47;8932;-70
2024/04/26 16:08:15;;;;;;;;;7.00;7.00;;;;;;;;6490382;39;8968;-70
2024/04/26 16:14:20;;;;;;;;;11.33;9.00;;;;;;;;6489891;31;9528;-70
2024/04/26 16:20:22;;;;;;;;;12.67;8.67;;;;;;;;6488739;47;8956;-69
2024/04/26 16:26:24;;;;;;;;;10.67;10.67;;;;;;;;6489462;31;8921;-70
2024/04/26 16:32:29;;;;;;;;;7.50;7.50;;;;;;;;6489465;39;8962;-68
2024/04/26 16:38:34;;;;;;;;;8.67;8.67;;;;;;;;6489720;39;9437;-69
2024/04/26 16:44:38;;;;;;;;;10.33;9.33;;;;;;;;6487734;47;8950;-69
2024/04/26 16:50:45;;;;;;;;;13.67;13.67;;;;;;;;6489392;39;8881;-71
2024/04/26 16:56:50;;;;;;;;;11.33;11.33;;;;;;;;6491229;39;8938;-71
2024/04/26 17:02:56;;;;;;;;;16.33;15.67;;;;;;;;6490920;31;8896;-68
2024/04/26 17:08:57;;;;;;;;;12.00;11.33;;;;;;;;6492492;31;9054;-69
2024/04/26 17:14:59;;;;;;;;;33.33;29.33;;;;;;;;6489689;46;8920;-68
2024/04/26 17:21:01;;;;;;;;;27.33;26.00;;;;;;;;6489467;39;8990;-69
2024/04/26 17:27:08;;;;;;;;;20.00;19.00;;;;;;;;6488188;46;8900;-69
2024/04/26 17:33:09;;;;;;;;;30.67;27.00;;;;;;;;6490229;39;9029;-68
2024/04/26 17:39:16;;;;;;;;;28.00;24.00;;;;;;;;6490587;31;8904;-68
2024/04/26 17:45:22;;;;;;;;;31.00;29.00;;;;;;;;6490635;39;9653;-67
2024/04/26 17:51:26;;;;;;;;;25.67;25.33;;;;;;;;6489906;39;9019;-67
2024/04/26 17:57:32;;;;;;;;;28.67;27.67;;;;;;;;6491345;39;8906;-69
2024/04/26 18:03:42;;;;;;;;;29.33;25.00;;;;;;;;6489411;39;8952;-69
2024/04/26 18:09:45;;;;;;;;;29.33;28.33;;;;;;;;6490769;46;8879;-68
2024/04/26 18:15:49;;;;;;;;;22.33;19.67;;;;;;;;6488656;39;9332;-69
2024/04/26 18:21:51;;;;;;;;;36.75;35.50;;;;;;;;6491398;31;8922;-68
2024/04/26 18:27:52;;;;;;;;;44.00;35.25;;;;;;;;6490497;39;8920;-69
2024/04/26 18:33:54;;;;;;;;;27.50;24.50;;;;;;;;6488904;39;8876;-68
2024/04/26 18:40:00;;;;;;;;;24.67;23.67;;;;;;;;6490926;39;8892;-68
2024/04/26 18:46:08;;;;;;;;;26.00;23.50;;;;;;;;6489864;46;8924;-68
2024/04/26 18:52:13;;;;;;;;;21.67;20.33;;;;;;;;6490375;39;9920;-68
2024/04/26 18:58:23;;;;;;;;;17.67;17.67;;;;;;;;6490108;46;8892;-69
2024/04/26 19:04:26;;;;;;;;;17.00;17.00;;;;;;;;6490136;39;9020;-69
2024/04/26 19:10:29;;;;;;;;;21.33;21.00;;;;;;;;6489647;46;8884;-70
2024/04/26 19:16:42;;;;;;;;;24.25;23.25;;;;;;;;6489115;39;8904;-69
2024/04/26 19:22:43;;;;;;;;;21.75;20.50;;;;;;;;6490700;39;9487;-68
2024/04/26 19:28:58;;;;;;;;;19.50;18.75;;;;;;;;6488439;46;8921;-71
2024/04/26 19:35:04;;;;;;;;;21.00;20.67;;;;;;;;6490190;39;8876;-69
2024/04/26 19:41:06;;;;;;;;;16.67;16.67;;;;;;;;6489425;39;8884;-68
2024/04/26 19:47:09;;;;;;;;;16.00;16.00;;;;;;;;6489216;46;9097;-69
2024/04/26 19:59:54;;;;;;;;;16.33;14.67;;;;;;;;6489594;39;9601;-68
2024/04/26 20:05:58;;;;;;;;;19.00;16.00;;;;;;;;6490001;47;8924;-69
2024/04/26 20:12:04;;;;;;;;;18.00;15.33;;;;;;;;6489117;31;8900;-67
2024/04/26 20:18:06;;;;;;;;;15.75;14.75;;;;;;;;6489031;47;8967;-68
2024/04/26 20:24:11;;;;;;;;;18.33;13.33;;;;;;;;6489410;31;8958;-68
2024/04/26 20:30:20;;;;;;;;;12.33;11.00;;;;;;;;6491147;31;8848;-68
2024/04/26 20:36:27;;;;;;;;;15.00;11.33;;;;;;;;6491797;31;8958;-69
2024/04/26 20:42:28;;;;;;;;;13.33;13.33;;;;;;;;6490707;46;9028;-68
2024/04/26 20:48:29;;;;;;;;;15.00;13.67;;;;;;;;6491324;39;9907;-68
2024/04/26 20:54:34;;;;;;;;;16.50;14.50;;;;;;;;6491204;39;8848;-68
2024/04/26 21:00:38;;;;;;;;;18.00;18.00;;;;;;;;6490798;46;8920;-68
2024/04/26 21:06:40;;;;;;;;;19.00;16.25;;;;;;;;6491616;46;8920;-69
2024/04/26 21:12:46;;;;;;;;;16.75;15.50;;;;;;;;6490819;39;8926;-68
2024/04/26 21:18:47;;;;;;;;;9.67;9.67;;;;;;;;6491178;39;9508;-68
2024/04/26 21:24:49;;;;;;;;;13.33;11.00;;;;;;;;6489893;46;9034;-68
2024/04/26 21:30:53;;;;;;;;;13.67;13.67;;;;;;;;6491071;39;8861;-68
2024/04/26 21:36:54;;;;;;;;;10.75;10.75;;;;;;;;6491073;46;8903;-68
2024/04/26 21:42:57;;;;;;;;;11.50;10.25;;;;;;;;6490168;46;8865;-67
2024/04/26 21:49:01;;;;;;;;;13.75;13.00;;;;;;;;6490530;46;8924;-69
2024/04/26 21:55:11;;;;;;;;;12.50;9.50;;;;;;;;6490795;39;8877;-68
2024/04/26 22:01:14;;;;;;;;;12.50;10.00;;;;;;;;6491071;39;8923;-68
2024/04/26 22:07:16;;;;;;;;;13.00;12.00;;;;;;;;6490612;39;9624;-67
2024/04/26 22:13:21;;;;;;;;;14.75;12.25;;;;;;;;6490226;46;8880;-69
2024/04/26 22:19:27;;;;;;;;;15.75;15.00;;;;;;;;6490249;46;8944;-67
2024/04/26 22:25:30;;;;;;;;;12.75;12.75;;;;;;;;6490635;31;8928;-69
2024/04/26 22:31:33;;;;;;;;;15.00;14.00;;;;;;;;6491426;31;9461;-67
2024/04/26 22:37:34;;;;;;;;;16.50;14.50;;;;;;;;6490081;46;9038;-67
2024/04/26 22:43:35;;;;;;;;;16.50;14.25;;;;;;;;6490459;31;9593;-68
2024/04/26 22:49:37;;;;;;;;;16.00;15.25;;;;;;;;6491278;31;8978;-68
2024/04/26 22:55:41;;;;;;;;;12.00;10.25;;;;;;;;6489816;39;8951;-68
2024/04/26 23:01:44;;;;;;;;;11.50;11.25;;;;;;;;6490289;39;8903;-69
2024/04/26 23:07:47;;;;;;;;;13.00;11.00;;;;;;;;6491160;31;8932;-67
2024/04/26 23:13:49;;;;;;;;;13.00;13.00;;;;;;;;6489163;46;8919;-67
2024/04/26 23:19:53;;;;;;;;;13.50;12.00;;;;;;;;6490557;39;9535;-67
2024/04/26 23:25:54;;;;;;;;;8.75;8.75;;;;;;;;6488937;39;9105;-67
2024/04/26 23:31:58;;;;;;;;;12.00;11.00;;;;;;;;6490232;39;8869;-68
2024/04/26 23:38:02;;;;;;;;;11.75;10.75;;;;;;;;6490047;39;8919;-68
2024/04/26 23:44:03;;;;;;;;;13.50;13.50;;;;;;;;6490023;39;8992;-68
2024/04/26 23:50:11;;;;;;;;;13.00;11.75;;;;;;;;6490087;46;8912;-68
2024/04/26 23:56:18;;;;;;;;;11.00;11.00;;;;;;;;6489894;39;8908;-67
